Time;durP1;ratioP1;P1;durP2;ratioP2;P2;SDS_P1;SDS_P2;PMS_P1;PMS_P2;Temp;Humidity;BMP_temperature;BMP_pressure;BME280_temperature;BME280_humidity;BME280_pressure;Samples;Min_cycle;Max_cycle;Signal;HPM_P1;HPM_P2
2022/02/15 00:00:44;;;;;;;0.40;0.30;;;;;;;;;;4131422;28;20058;-50
2022/02/15 00:02:45;;;;;;;0.60;0.40;;;;;;;;;;4131196;28;20336;-54
2022/02/15 00:04:46;;;;;;;0.70;0.30;;;;;;;;;;4131581;28;20109;-51
2022/02/15 00:06:48;;;;;;;0.88;0.43;;;;;;;;;;4131692;28;20085;-54
2022/02/15 00:08:49;;;;;;;0.55;0.40;;;;;;;;;;4131753;28;20439;-51
2022/02/15 00:10:51;;;;;;;0.43;0.30;;;;;;;;;;4131541;28;20050;-48
2022/02/15 00:12:52;;;;;;;0.90;0.40;;;;;;;;;;4131479;28;20065;-53
2022/02/15 00:14:53;;;;;;;0.45;0.40;;;;;;;;;;4131389;28;20363;-54
2022/02/15 00:16:55;;;;;;;0.50;0.40;;;;;;;;;;4131060;28;20466;-55
2022/02/15 00:18:57;;;;;;;0.30;0.30;;;;;;;;;;4131359;28;20054;-50
2022/02/15 00:21:00;;;;;;;0.52;0.40;;;;;;;;;;4131642;28;20054;-54
2022/02/15 00:23:02;;;;;;;0.40;0.40;;;;;;;;;;4131280;28;20058;-55
2022/02/15 00:25:05;;;;;;;0.35;0.35;;;;;;;;;;4147533;28;20077;-48
2022/02/15 00:27:05;;;;;;;0.57;0.40;;;;;;;;;;4147177;28;20077;-53
2022/02/15 00:29:07;;;;;;;0.47;0.20;;;;;;;;;;4147877;28;20054;-49
2022/02/15 00:31:08;;;;;;;0.43;0.40;;;;;;;;;;4147331;28;20132;-55
2022/02/15 00:33:09;;;;;;;0.30;0.30;;;;;;;;;;4147003;28;20124;-49
2022/02/15 00:35:11;;;;;;;0.85;0.50;;;;;;;;;;4143308;28;20050;-53
2022/02/15 00:37:12;;;;;;;0.30;0.30;;;;;;;;;;4130969;28;20058;-53
2022/02/15 00:39:13;;;;;;;0.43;0.40;;;;;;;;;;4131415;28;20104;-56
2022/02/15 00:41:14;;;;;;;0.73;0.40;;;;;;;;;;4131304;28;20324;-53
2022/02/15 00:43:15;;;;;;;0.40;0.40;;;;;;;;;;4130845;28;20142;-55
2022/02/15 00:45:17;;;;;;;0.40;0.40;;;;;;;;;;4130993;28;20054;-55
2022/02/15 00:47:18;;;;;;;0.75;0.50;;;;;;;;;;4130489;28;20113;-53
2022/02/15 00:49:21;;;;;;;0.40;0.30;;;;;;;;;;4130863;28;20058;-54
2022/02/15 00:51:22;;;;;;;0.32;0.30;;;;;;;;;;4129961;28;20051;-48
2022/02/15 00:53:23;;;;;;;0.30;0.20;;;;;;;;;;4130770;28;20122;-51
2022/02/15 00:55:25;;;;;;;0.60;0.40;;;;;;;;;;4130881;28;20081;-54
2022/02/15 00:57:26;;;;;;;0.30;0.30;;;;;;;;;;4130843;28;20074;-54
2022/02/15 00:59:27;;;;;;;0.40;0.30;;;;;;;;;;4130956;28;20109;-49
2022/02/15 01:01:28;;;;;;;0.95;0.35;;;;;;;;;;4130648;28;20066;-56
2022/02/15 01:03:30;;;;;;;0.40;0.35;;;;;;;;;;4130505;28;20190;-52
2022/02/15 01:05:31;;;;;;;0.65;0.40;;;;;;;;;;4130550;28;20116;-51
2022/02/15 01:07:32;;;;;;;0.30;0.30;;;;;;;;;;4129323;28;20597;-53
2022/02/15 01:09:34;;;;;;;0.47;0.20;;;;;;;;;;4130742;28;20074;-51
2022/02/15 01:11:36;;;;;;;0.20;0.20;;;;;;;;;;4129903;28;20054;-54
2022/02/15 01:13:37;;;;;;;0.65;0.30;;;;;;;;;;4130613;28;20432;-51
2022/02/15 01:15:40;;;;;;;0.55;0.40;;;;;;;;;;4113213;28;20109;-52
2022/02/15 01:17:41;;;;;;;0.40;0.30;;;;;;;;;;4130108;28;20055;-54
2022/02/15 01:19:42;;;;;;;1.20;0.30;;;;;;;;;;4130482;28;20069;-53
2022/02/15 01:21:43;;;;;;;0.15;0.15;;;;;;;;;;4130328;28;20050;-53
2022/02/15 01:23:45;;;;;;;0.43;0.30;;;;;;;;;;4130315;28;20486;-52
2022/02/15 01:25:46;;;;;;;0.30;0.30;;;;;;;;;;4129071;28;20073;-50
2022/02/15 01:27:47;;;;;;;0.40;0.40;;;;;;;;;;4130132;28;20145;-55
2022/02/15 01:29:48;;;;;;;0.20;0.20;;;;;;;;;;4130584;28;20081;-52
2022/02/15 01:31:51;;;;;;;0.20;0.20;;;;;;;;;;4112576;28;20055;-54
2022/02/15 01:33:52;;;;;;;0.30;0.30;;;;;;;;;;4129046;28;20054;-51
2022/02/15 01:35:53;;;;;;;0.60;0.45;;;;;;;;;;4120012;28;20128;-49
2022/02/15 01:37:54;;;;;;;0.88;0.43;;;;;;;;;;4128628;28;20125;-53
2022/02/15 01:39:57;;;;;;;0.30;0.30;;;;;;;;;;4128981;28;20061;-55
2022/02/15 01:42:00;;;;;;;0.50;0.40;;;;;;;;;;4128697;28;20070;-54
2022/02/15 01:44:02;;;;;;;0.40;0.30;;;;;;;;;;4130158;28;20061;-48
2022/02/15 01:46:03;;;;;;;0.35;0.30;;;;;;;;;;4128888;28;20395;-55
2022/02/15 01:48:05;;;;;;;0.47;0.30;;;;;;;;;;4128167;28;20062;-53
2022/02/15 01:50:07;;;;;;;0.50;0.30;;;;;;;;;;4128625;28;20054;-54
2022/02/15 01:52:09;;;;;;;0.28;0.20;;;;;;;;;;4129974;28;20066;-48
2022/02/15 01:54:10;;;;;;;0.50;0.40;;;;;;;;;;4130310;28;20062;-53
2022/02/15 01:56:13;;;;;;;0.30;0.30;;;;;;;;;;4128854;28;20112;-52
2022/02/15 01:58:17;;;;;;;0.35;0.20;;;;;;;;;;4128598;28;20054;-54
2022/02/15 02:00:22;;;;;;;0.40;0.30;;;;;;;;;;4144898;28;20133;-53
2022/02/15 02:02:29;;;;;;;0.35;0.35;;;;;;;;;;4144600;28;20415;-49
2022/02/15 02:06:52;;;;;;;;;;;;;;;;;;4128989;28;20606;-52
2022/02/15 02:08:54;;;;;;;0.40;0.30;;;;;;;;;;4144873;28;19967;-54
2022/02/15 02:10:55;;;;;;;0.52;0.40;;;;;;;;;;4128611;28;20058;-53
2022/02/15 02:13:15;;;;;;;;;;;;;;;;;;4146662;28;20058;-54
2022/02/15 02:15:19;;;;;;;0.65;0.40;;;;;;;;;;4144865;28;19921;-56
2022/02/15 02:17:46;;;;;;;0.50;0.20;;;;;;;;;;4140963;28;20472;-54
2022/02/15 02:19:47;;;;;;;0.68;0.50;;;;;;;;;;4128565;28;20104;-54
2022/02/15 02:21:48;;;;;;;0.30;0.30;;;;;;;;;;4146249;28;20058;-54
2022/02/15 02:23:52;;;;;;;0.82;0.32;;;;;;;;;;4129971;28;20512;-53
2022/02/15 02:26:02;;;;;;;0.45;0.45;;;;;;;;;;4131742;28;20467;-55
2022/02/15 02:28:08;;;;;;;0.30;0.30;;;;;;;;;;4147738;28;20112;-53
2022/02/15 02:30:10;;;;;;;0.43;0.43;;;;;;;;;;4148055;28;20085;-54
2022/02/15 02:32:19;;;;;;;0.40;0.33;;;;;;;;;;4131180;28;20094;-53
2022/02/15 02:34:20;;;;;;;0.45;0.35;;;;;;;;;;4131746;28;20514;-46
2022/02/15 02:36:24;;;;;;;0.60;0.30;;;;;;;;;;4119156;28;20054;-53
2022/02/15 02:38:25;;;;;;;0.75;0.40;;;;;;;;;;4132954;28;20050;-54
2022/02/15 02:40:26;;;;;;;0.60;0.40;;;;;;;;;;4131552;28;20453;-54
2022/02/15 02:42:28;;;;;;;0.22;0.22;;;;;;;;;;4132845;28;20569;-54
2022/02/15 02:44:29;;;;;;;0.70;0.40;;;;;;;;;;4133016;28;20128;-51
2022/02/15 02:46:30;;;;;;;0.60;0.40;;;;;;;;;;4131161;28;20462;-53
2022/02/15 02:48:31;;;;;;;0.45;0.40;;;;;;;;;;4115221;28;20169;-54
2022/02/15 02:50:33;;;;;;;0.28;0.28;;;;;;;;;;4115490;28;20051;-54
2022/02/15 02:52:37;;;;;;;0.50;0.30;;;;;;;;;;4115526;28;20138;-52
2022/02/15 02:54:41;;;;;;;0.45;0.32;;;;;;;;;;4131403;28;20558;-53
2022/02/15 02:56:43;;;;;;;0.60;0.40;;;;;;;;;;4132908;28;20057;-55
2022/02/15 02:58:44;;;;;;;0.38;0.28;;;;;;;;;;4132609;28;20061;-53
2022/02/15 03:00:45;;;;;;;0.32;0.30;;;;;;;;;;4099245;29;20073;-53
2022/02/15 03:02:57;;;;;;;0.65;0.47;;;;;;;;;;4116532;28;20059;-53
2022/02/15 03:04:59;;;;;;;0.57;0.30;;;;;;;;;;4131211;28;20062;-51
2022/02/15 03:07:00;;;;;;;0.20;0.20;;;;;;;;;;4115056;28;20082;-51
2022/02/15 03:09:03;;;;;;;0.20;0.20;;;;;;;;;;4131129;28;20077;-54
2022/02/15 03:11:05;;;;;;;0.38;0.30;;;;;;;;;;4131092;28;20370;-46
2022/02/15 03:13:12;;;;;;;0.40;0.40;;;;;;;;;;4131198;28;20117;-54
2022/02/15 03:15:13;;;;;;;0.82;0.40;;;;;;;;;;4132381;28;20054;-53
2022/02/15 03:17:16;;;;;;;0.20;0.20;;;;;;;;;;4114358;28;20066;-53
2022/02/15 03:19:18;;;;;;;0.35;0.35;;;;;;;;;;4115050;28;20090;-54
2022/02/15 03:21:20;;;;;;;0.50;0.25;;;;;;;;;;4132211;28;20055;-52
2022/02/15 03:23:21;;;;;;;0.80;0.40;;;;;;;;;;4131996;28;20564;-54
2022/02/15 03:25:23;;;;;;;0.55;0.40;;;;;;;;;;4131091;28;20054;-55
2022/02/15 03:27:25;;;;;;;0.30;0.30;;;;;;;;;;4130900;28;20058;-52
2022/02/15 03:29:27;;;;;;;0.43;0.35;;;;;;;;;;4114834;28;20063;-48
2022/02/15 03:31:29;;;;;;;0.30;0.30;;;;;;;;;;4114551;28;20466;-53
2022/02/15 03:33:33;;;;;;;0.57;0.50;;;;;;;;;;4130680;28;20058;-53
2022/02/15 03:35:35;;;;;;;0.52;0.40;;;;;;;;;;4118875;28;20065;-51
2022/02/15 03:37:42;;;;;;;0.38;0.30;;;;;;;;;;4146836;28;20054;-51
2022/02/15 03:39:45;;;;;;;0.50;0.50;;;;;;;;;;4130877;28;20054;-51
2022/02/15 03:44:10;;;;;;;0.43;0.40;;;;;;;;;;4148112;28;20054;-53
2022/02/15 03:46:12;;;;;;;0.98;0.40;;;;;;;;;;4130665;28;20059;-55
2022/02/15 03:48:14;;;;;;;0.30;0.20;;;;;;;;;;4130328;28;20119;-53
2022/02/15 03:50:18;;;;;;;0.30;0.30;;;;;;;;;;4114749;28;20106;-48
2022/02/15 03:52:20;;;;;;;0.40;0.40;;;;;;;;;;4130419;28;20510;-54
2022/02/15 03:54:23;;;;;;;0.47;0.28;;;;;;;;;;4146586;28;20406;-54
2022/02/15 03:56:26;;;;;;;0.40;0.40;;;;;;;;;;4130463;28;20431;-54
2022/02/15 03:58:27;;;;;;;0.30;0.30;;;;;;;;;;4130522;28;20062;-50
2022/02/15 04:00:29;;;;;;;0.30;0.28;;;;;;;;;;4130294;28;20498;-53
2022/02/15 04:02:46;;;;;;;0.40;0.40;;;;;;;;;;4130042;28;20076;-54
2022/02/15 04:04:49;;;;;;;1.13;0.30;;;;;;;;;;4146420;28;20112;-53
2022/02/15 04:06:54;;;;;;;0.80;0.32;;;;;;;;;;4146597;28;20135;-53
2022/02/15 04:08:55;;;;;;;0.40;0.35;;;;;;;;;;4130213;28;20058;-47
2022/02/15 04:10:57;;;;;;;0.47;0.32;;;;;;;;;;4130486;28;20061;-55
2022/02/15 04:13:02;;;;;;;0.47;0.30;;;;;;;;;;4113880;28;20109;-53
2022/02/15 04:15:04;;;;;;;0.60;0.40;;;;;;;;;;4130127;28;20553;-52
2022/02/15 04:17:13;;;;;;;0.52;0.40;;;;;;;;;;4145911;28;20093;-55
2022/02/15 04:19:14;;;;;;;0.50;0.30;;;;;;;;;;4130493;28;20093;-55
2022/02/15 04:21:20;;;;;;;0.57;0.40;;;;;;;;;;4130215;28;20419;-54
2022/02/15 04:23:21;;;;;;;0.60;0.38;;;;;;;;;;4146376;28;20080;-53
2022/02/15 04:25:23;;;;;;;0.63;0.52;;;;;;;;;;4129792;28;20077;-53
2022/02/15 04:27:25;;;;;;;0.40;0.38;;;;;;;;;;4129730;28;20415;-54
2022/02/15 04:29:28;;;;;;;0.30;0.30;;;;;;;;;;4146039;28;20057;-53
2022/02/15 04:31:32;;;;;;;0.73;0.40;;;;;;;;;;4145944;28;20045;-54
2022/02/15 04:33:33;;;;;;;0.28;0.20;;;;;;;;;;4147009;28;20085;-54
2022/02/15 04:35:34;;;;;;;0.93;0.50;;;;;;;;;;4141426;28;20058;-56
2022/02/15 04:37:36;;;;;;;0.77;0.30;;;;;;;;;;4129905;28;20112;-56
2022/02/15 04:39:37;;;;;;;0.70;0.38;;;;;;;;;;4129561;28;20061;-54
2022/02/15 04:41:42;;;;;;;0.60;0.40;;;;;;;;;;4129424;28;20109;-54
2022/02/15 04:43:47;;;;;;;0.45;0.45;;;;;;;;;;4113772;28;20085;-53
2022/02/15 04:45:55;;;;;;;0.40;0.40;;;;;;;;;;4128756;28;20473;-47
2022/02/15 04:47:57;;;;;;;0.47;0.30;;;;;;;;;;4128817;28;20418;-54
2022/02/15 04:50:00;;;;;;;0.68;0.40;;;;;;;;;;4129402;28;20399;-55
2022/02/15 04:52:01;;;;;;;0.35;0.32;;;;;;;;;;4097613;29;20186;-51
2022/02/15 04:54:02;;;;;;;0.32;0.30;;;;;;;;;;4113490;28;20153;-52
2022/02/15 04:56:04;;;;;;;0.30;0.30;;;;;;;;;;4113172;28;20494;-52
2022/02/15 04:58:06;;;;;;;0.45;0.35;;;;;;;;;;4113082;28;20059;-50
2022/02/15 05:00:13;;;;;;;1.08;0.30;;;;;;;;;;4129348;28;20104;-50
2022/02/15 05:02:33;;;;;;;0.45;0.35;;;;;;;;;;4112731;28;20054;-48
2022/02/15 05:04:49;;;;;;;0.43;0.32;;;;;;;;;;4113524;28;20097;-52
2022/02/15 05:06:51;;;;;;;0.38;0.32;;;;;;;;;;4113041;28;20384;-50
2022/02/15 05:08:54;;;;;;;0.30;0.30;;;;;;;;;;4129409;28;20066;-50
2022/02/15 05:10:56;;;;;;;0.50;0.30;;;;;;;;;;4130316;28;20486;-52
2022/02/15 05:13:08;;;;;;;0.57;0.40;;;;;;;;;;4112884;28;20117;-49
2022/02/15 05:15:18;;;;;;;0.30;0.28;;;;;;;;;;4113072;28;20066;-53
2022/02/15 05:17:30;;;;;;;0.52;0.30;;;;;;;;;;4128760;28;20138;-47
2022/02/15 05:19:33;;;;;;;0.28;0.28;;;;;;;;;;4113045;28;20434;-51
2022/02/15 05:21:36;;;;;;;0.30;0.30;;;;;;;;;;4128944;28;20669;-55
2022/02/15 05:23:38;;;;;;;0.30;0.30;;;;;;;;;;4113055;28;20074;-49
2022/02/15 05:25:39;;;;;;;0.20;0.20;;;;;;;;;;4128907;28;20065;-52
2022/02/15 05:27:45;;;;;;;0.32;0.30;;;;;;;;;;4113072;28;20054;-50
2022/02/15 05:29:53;;;;;;;0.55;0.52;;;;;;;;;;4113185;28;20055;-51
2022/02/15 05:32:14;;;;;;;0.60;0.40;;;;;;;;;;4129202;28;20096;-52
2022/02/15 05:34:16;;;;;;;0.30;0.22;;;;;;;;;;4112901;28;20058;-55
2022/02/15 05:36:20;;;;;;;0.40;0.30;;;;;;;;;;4124071;28;20090;-53
2022/02/15 05:38:23;;;;;;;0.30;0.30;;;;;;;;;;4128713;28;20058;-55
2022/02/15 05:40:26;;;;;;;0.60;0.40;;;;;;;;;;4113179;28;20066;-52
2022/02/15 05:42:32;;;;;;;0.43;0.32;;;;;;;;;;4128794;28;20054;-51
2022/02/15 05:44:34;;;;;;;1.02;0.40;;;;;;;;;;4112873;28;20058;-56
2022/02/15 05:46:39;;;;;;;0.60;0.30;;;;;;;;;;4128553;28;20092;-54
2022/02/15 05:48:41;;;;;;;0.65;0.40;;;;;;;;;;4128791;28;20085;-53
2022/02/15 05:51:11;;;;;;;0.30;0.30;;;;;;;;;;4129153;28;20049;-54
2022/02/15 05:53:24;;;;;;;0.50;0.40;;;;;;;;;;4128710;28;20058;-53
2022/02/15 05:55:25;;;;;;;0.55;0.20;;;;;;;;;;4129121;28;20058;-51
2022/02/15 05:57:28;;;;;;;0.32;0.30;;;;;;;;;;4145105;28;20058;-57
2022/02/15 05:59:35;;;;;;;0.30;0.30;;;;;;;;;;4146278;28;20445;-51
2022/02/15 06:01:51;;;;;;;0.50;0.30;;;;;;;;;;4097841;28;20546;-55
2022/02/15 06:04:12;;;;;;;1.00;0.30;;;;;;;;;;4110845;28;20058;-55
2022/02/15 06:06:18;;;;;;;0.32;0.32;;;;;;;;;;4142941;28;20555;-54
2022/02/15 06:08:19;;;;;;;0.40;0.40;;;;;;;;;;4112235;28;20070;-55
2022/02/15 06:10:21;;;;;;;0.38;0.38;;;;;;;;;;4126821;28;20050;-54
2022/02/15 06:12:26;;;;;;;0.35;0.32;;;;;;;;;;4110507;28;20125;-51
2022/02/15 06:14:33;;;;;;;0.65;0.43;;;;;;;;;;4126594;28;20391;-53
2022/02/15 06:16:37;;;;;;;0.30;0.30;;;;;;;;;;4126220;28;20457;-54
2022/02/15 06:18:47;;;;;;;0.50;0.32;;;;;;;;;;4126731;28;20113;-54
2022/02/15 06:20:50;;;;;;;1.52;0.52;;;;;;;;;;4126732;28;20065;-54
2022/02/15 06:22:57;;;;;;;0.43;0.43;;;;;;;;;;4110779;28;20094;-52
2022/02/15 06:24:58;;;;;;;0.90;0.60;;;;;;;;;;4113628;28;20058;-54
2022/02/15 06:27:08;;;;;;;;;;;;;;;;;;4107581;28;20062;-54
2022/02/15 06:29:29;;;;;;;;;;;;;;;;;;4133304;28;20439;-55
2022/02/15 06:31:36;;;;;;;0.40;0.40;;;;;;;;;;4123163;28;20020;-53
2022/02/15 06:33:37;;;;;;;0.47;0.40;;;;;;;;;;4137607;28;20054;-52
2022/02/15 06:35:38;;;;;;;0.90;0.85;;;;;;;;;;4127224;28;20086;-51
2022/02/15 06:37:45;;;;;;;0.77;0.60;;;;;;;;;;4094520;28;20055;-55
2022/02/15 06:39:47;;;;;;;0.50;0.50;;;;;;;;;;4113084;28;20058;-55
2022/02/15 06:41:49;;;;;;;0.88;0.47;;;;;;;;;;4112213;28;20117;-55
2022/02/15 06:43:53;;;;;;;0.90;0.35;;;;;;;;;;4118592;28;20120;-56
2022/02/15 06:45:58;;;;;;;0.60;0.47;;;;;;;;;;4113525;28;20082;-56
2022/02/15 06:48:03;;;;;;;1.80;0.60;;;;;;;;;;4111338;28;20599;-55
2022/02/15 06:50:09;;;;;;;1.00;0.50;;;;;;;;;;4128287;28;20114;-56
2022/02/15 06:52:31;;;;;;;2.15;0.70;;;;;;;;;;4095558;28;20477;-55
2022/02/15 06:54:49;;;;;;;0.77;0.40;;;;;;;;;;4095642;28;20054;-48
2022/02/15 06:56:55;;;;;;;0.95;0.40;;;;;;;;;;4112057;28;20050;-54
2022/02/15 06:59:03;;;;;;;0.65;0.43;;;;;;;;;;4116861;28;20063;-53
2022/02/15 07:01:11;;;;;;;0.57;0.45;;;;;;;;;;4121282;28;20341;-53
2022/02/15 07:03:13;;;;;;;0.70;0.50;;;;;;;;;;4107456;28;20058;-52
2022/02/15 07:05:14;;;;;;;0.65;0.40;;;;;;;;;;4125459;28;20497;-54
2022/02/15 07:07:16;;;;;;;0.65;0.60;;;;;;;;;;4126969;28;20050;-53
2022/02/15 07:09:23;;;;;;;1.05;0.95;;;;;;;;;;4123104;28;20504;-55
2022/02/15 07:11:47;;;;;;;0.75;0.60;;;;;;;;;;4116577;28;20081;-52
2022/02/15 07:13:50;;;;;;;0.80;0.60;;;;;;;;;;4114717;28;20063;-53
2022/02/15 07:15:52;;;;;;;0.82;0.50;;;;;;;;;;4122137;28;20058;-52
2022/02/15 07:17:53;;;;;;;1.10;0.63;;;;;;;;;;4119228;28;20093;-53
2022/02/15 07:19:59;;;;;;;0.80;0.52;;;;;;;;;;4103547;28;20059;-55
2022/02/15 07:22:20;;;;;;;0.93;0.75;;;;;;;;;;4115140;28;20085;-56
2022/02/15 07:24:33;;;;;;;2.35;0.50;;;;;;;;;;4111537;28;20062;-49
2022/02/15 07:26:55;;;;;;;1.33;0.70;;;;;;;;;;4107877;28;20055;-53
2022/02/15 07:29:03;;;;;;;0.68;0.45;;;;;;;;;;4109492;28;20191;-52
2022/02/15 07:31:11;;;;;;;0.73;0.65;;;;;;;;;;4118034;28;20109;-51
2022/02/15 07:33:12;;;;;;;0.88;0.60;;;;;;;;;;4096955;28;20522;-52
2022/02/15 07:35:13;;;;;;;1.52;0.60;;;;;;;;;;4104185;28;20145;-53
2022/02/15 07:37:14;;;;;;;0.60;0.50;;;;;;;;;;4123520;28;20589;-55
2022/02/15 07:39:15;;;;;;;1.35;0.50;;;;;;;;;;4119734;28;20054;-50
2022/02/15 07:41:17;;;;;;;0.88;0.60;;;;;;;;;;4119113;28;20090;-49
2022/02/15 07:43:18;;;;;;;1.15;0.50;;;;;;;;;;4123320;28;20117;-51
2022/02/15 07:45:22;;;;;;;1.85;0.70;;;;;;;;;;4117552;28;20099;-50
2022/02/15 07:47:23;;;;;;;1.10;0.50;;;;;;;;;;4121397;28;20054;-54
2022/02/15 07:49:24;;;;;;;0.65;0.50;;;;;;;;;;4122998;28;20096;-54
2022/02/15 07:51:26;;;;;;;1.13;0.80;;;;;;;;;;4117209;28;20062;-53
2022/02/15 07:53:27;;;;;;;0.93;0.50;;;;;;;;;;4121554;28;20098;-54
2022/02/15 07:55:28;;;;;;;0.77;0.43;;;;;;;;;;4101940;28;20505;-57
2022/02/15 07:57:29;;;;;;;4.10;0.65;;;;;;;;;;4105849;28;20054;-55
2022/02/15 07:59:30;;;;;;;0.90;0.50;;;;;;;;;;4113354;28;20493;-52
2022/02/15 08:01:32;;;;;;;1.10;0.52;;;;;;;;;;4114878;28;20497;-53
2022/02/15 08:03:33;;;;;;;0.60;0.60;;;;;;;;;;4116553;28;20058;-55
2022/02/15 08:05:34;;;;;;;0.55;0.45;;;;;;;;;;4099349;28;20062;-49
2022/02/15 08:07:47;;;;;;;2.53;0.60;;;;;;;;;;4102462;28;20057;-50
2022/02/15 08:09:48;;;;;;;1.17;0.50;;;;;;;;;;4120222;28;20065;-51
2022/02/15 08:11:55;;;;;;;1.55;0.70;;;;;;;;;;4120182;28;20435;-48
2022/02/15 08:13:59;;;;;;;0.63;0.60;;;;;;;;;;4119819;28;20061;-50
2022/02/15 08:16:01;;;;;;;0.55;0.30;;;;;;;;;;4093537;28;20081;-52
2022/02/15 08:18:03;;;;;;;0.68;0.50;;;;;;;;;;4114633;28;20537;-51
2022/02/15 08:20:04;;;;;;;1.88;0.70;;;;;;;;;;4117903;28;20058;-51
2022/02/15 08:22:06;;;;;;;2.92;0.40;;;;;;;;;;4114607;28;20144;-51
2022/02/15 08:24:07;;;;;;;3.33;0.88;;;;;;;;;;4115105;28;20128;-52
2022/02/15 08:26:08;;;;;;;1.88;0.52;;;;;;;;;;4117934;28;20109;-55
2022/02/15 08:28:12;;;;;;;0.90;0.60;;;;;;;;;;4116625;28;20075;-56
2022/02/15 08:30:16;;;;;;;1.27;0.60;;;;;;;;;;4115764;28;20105;-55
2022/02/15 08:32:17;;;;;;;0.55;0.43;;;;;;;;;;4111391;28;20054;-55
2022/02/15 08:34:18;;;;;;;1.48;0.40;;;;;;;;;;4113553;28;20066;-54
2022/02/15 08:36:19;;;;;;;1.17;0.60;;;;;;;;;;4115516;28;20070;-57
2022/02/15 08:38:20;;;;;;;0.70;0.50;;;;;;;;;;4116217;28;20420;-54
2022/02/15 08:40:22;;;;;;;0.50;0.40;;;;;;;;;;4117934;28;20124;-53
2022/02/15 08:42:23;;;;;;;0.85;0.55;;;;;;;;;;4114695;28;20062;-55
2022/02/15 08:44:24;;;;;;;0.40;0.32;;;;;;;;;;4114015;28;20058;-55
2022/02/15 08:46:26;;;;;;;1.35;0.80;;;;;;;;;;4118286;28;20214;-56
2022/02/15 08:48:27;;;;;;;0.47;0.40;;;;;;;;;;4121106;28;20054;-57
2022/02/15 08:50:28;;;;;;;1.23;0.73;;;;;;;;;;4123209;28;20057;-58
2022/02/15 08:52:30;;;;;;;0.70;0.60;;;;;;;;;;4120902;28;20053;-56
2022/02/15 08:54:31;;;;;;;1.27;0.82;;;;;;;;;;4099677;28;20066;-55
2022/02/15 08:56:32;;;;;;;0.50;0.40;;;;;;;;;;4119234;28;20065;-51
2022/02/15 08:58:33;;;;;;;1.05;0.63;;;;;;;;;;4114588;28;20081;-51
2022/02/15 09:00:36;;;;;;;0.80;0.70;;;;;;;;;;4113526;28;20185;-52
2022/02/15 09:02:37;;;;;;;1.73;0.80;;;;;;;;;;4112094;28;20303;-51
2022/02/15 09:04:39;;;;;;;1.33;0.70;;;;;;;;;;4118171;28;20070;-53
2022/02/15 09:06:41;;;;;;;1.15;0.63;;;;;;;;;;4117773;28;20414;-50
2022/02/15 09:08:42;;;;;;;2.22;0.80;;;;;;;;;;4121087;28;20054;-49
2022/02/15 09:10:44;;;;;;;1.90;0.60;;;;;;;;;;4118973;28;20414;-54
2022/02/15 09:12:45;;;;;;;1.50;0.93;;;;;;;;;;4115198;28;20058;-52
2022/02/15 09:14:46;;;;;;;2.15;0.80;;;;;;;;;;4110762;28;20121;-51
2022/02/15 09:16:47;;;;;;;1.08;0.73;;;;;;;;;;4108552;28;20097;-51
2022/02/15 09:18:48;;;;;;;1.63;0.77;;;;;;;;;;4112029;28;20109;-47
2022/02/15 09:20:50;;;;;;;1.05;0.95;;;;;;;;;;4117470;28;20054;-53
2022/02/15 09:22:51;;;;;;;1.45;0.70;;;;;;;;;;4115630;28;20097;-54
2022/02/15 09:24:53;;;;;;;0.80;0.80;;;;;;;;;;4116536;28;20058;-54
2022/02/15 09:26:54;;;;;;;1.20;0.80;;;;;;;;;;4098004;28;20098;-53
2022/02/15 09:28:55;;;;;;;1.10;0.70;;;;;;;;;;4117401;28;20406;-53
2022/02/15 09:30:56;;;;;;;2.35;0.50;;;;;;;;;;4113734;28;20089;-50
2022/02/15 09:32:57;;;;;;;1.35;0.73;;;;;;;;;;4111526;28;20113;-52
2022/02/15 09:34:58;;;;;;;1.15;0.70;;;;;;;;;;4114315;28;20066;-52
2022/02/15 09:36:59;;;;;;;2.05;0.98;;;;;;;;;;4115576;28;20113;-55
2022/02/15 09:39:02;;;;;;;1.48;1.00;;;;;;;;;;4111533;28;20300;-52
2022/02/15 09:41:07;;;;;;;1.40;0.75;;;;;;;;;;4120596;28;20122;-54
2022/02/15 09:43:08;;;;;;;1.10;0.85;;;;;;;;;;4118504;28;20061;-53
2022/02/15 09:45:11;;;;;;;1.52;1.02;;;;;;;;;;4111509;28;20062;-56
2022/02/15 09:47:13;;;;;;;1.80;0.70;;;;;;;;;;4116060;28;20046;-56
2022/02/15 09:51:36;;;;;;;1.58;1.10;;;;;;;;;;4105367;28;20089;-53
2022/02/15 09:53:38;;;;;;;1.55;0.82;;;;;;;;;;4119016;28;20533;-55
2022/02/15 09:55:40;;;;;;;1.13;0.80;;;;;;;;;;4111433;28;20062;-56
2022/02/15 09:57:41;;;;;;;1.02;0.70;;;;;;;;;;4120608;28;20430;-53
2022/02/15 09:59:43;;;;;;;1.45;0.93;;;;;;;;;;4119859;28;20081;-54
2022/02/15 10:01:44;;;;;;;0.88;0.68;;;;;;;;;;4112208;28;20046;-54
2022/02/15 10:04:01;;;;;;;1.23;0.60;;;;;;;;;;4110241;28;20054;-52
2022/02/15 10:06:10;;;;;;;1.83;1.05;;;;;;;;;;4110184;28;20058;-51
2022/02/15 10:08:11;;;;;;;1.98;0.80;;;;;;;;;;4123810;28;20050;-53
2022/02/15 10:10:13;;;;;;;1.30;0.85;;;;;;;;;;4111636;28;20066;-55
2022/02/15 10:12:14;;;;;;;1.30;0.95;;;;;;;;;;4119212;28;20073;-50
2022/02/15 10:14:18;;;;;;;1.25;1.10;;;;;;;;;;4116226;28;20403;-56
2022/02/15 10:16:19;;;;;;;0.90;0.77;;;;;;;;;;4115744;28;20554;-56
2022/02/15 10:18:28;;;;;;;1.35;1.00;;;;;;;;;;4114699;28;20062;-54
2022/02/15 10:20:29;;;;;;;1.67;0.98;;;;;;;;;;4111805;28;20058;-56
2022/02/15 10:22:36;;;;;;;1.52;1.08;;;;;;;;;;4118620;28;20388;-53
2022/02/15 10:24:39;;;;;;;1.10;0.70;;;;;;;;;;4116929;28;20074;-53
2022/02/15 10:26:40;;;;;;;1.17;0.80;;;;;;;;;;4122426;28;20922;-51
2022/02/15 10:28:41;;;;;;;1.10;0.98;;;;;;;;;;4111520;28;20087;-51
2022/02/15 10:30:50;;;;;;;1.73;0.88;;;;;;;;;;4114313;28;20830;-52
2022/02/15 10:33:00;;;;;;;1.15;0.88;;;;;;;;;;4118116;28;20062;-55
2022/02/15 10:35:01;;;;;;;1.10;0.80;;;;;;;;;;4119719;28;20521;-53
2022/02/15 10:37:04;;;;;;;1.20;1.00;;;;;;;;;;4124263;28;20057;-56
2022/02/15 10:39:05;;;;;;;2.22;1.00;;;;;;;;;;4129184;28;20078;-53
2022/02/15 10:41:08;;;;;;;0.90;0.80;;;;;;;;;;4126747;28;20731;-51
2022/02/15 10:43:09;;;;;;;2.38;0.85;;;;;;;;;;4123542;28;20110;-53
2022/02/15 10:45:11;;;;;;;1.10;1.00;;;;;;;;;;4117170;28;20067;-55
2022/02/15 10:47:12;;;;;;;1.23;1.10;;;;;;;;;;4133192;28;20054;-55
2022/02/15 10:49:13;;;;;;;2.03;0.82;;;;;;;;;;4128147;28;20070;-55
2022/02/15 10:51:15;;;;;;;1.05;0.90;;;;;;;;;;4123466;28;20253;-54
2022/02/15 10:53:16;;;;;;;1.92;1.10;;;;;;;;;;4126598;28;20121;-57
2022/02/15 10:55:17;;;;;;;1.00;0.90;;;;;;;;;;4127409;28;20502;-55
2022/02/15 10:57:19;;;;;;;1.95;1.10;;;;;;;;;;4125717;28;20054;-56
2022/02/15 10:59:21;;;;;;;0.95;0.85;;;;;;;;;;4128243;28;20062;-57
2022/02/15 11:01:22;;;;;;;1.88;0.98;;;;;;;;;;4124854;28;20207;-53
2022/02/15 11:03:24;;;;;;;1.20;0.70;;;;;;;;;;4122597;28;20506;-52
2022/02/15 11:05:25;;;;;;;1.25;0.90;;;;;;;;;;4103818;28;20126;-52
2022/02/15 11:07:29;;;;;;;1.15;0.75;;;;;;;;;;4122083;28;20049;-56
2022/02/15 11:09:34;;;;;;;2.35;1.13;;;;;;;;;;4106818;28;20062;-52
2022/02/15 11:11:52;;;;;;;1.00;0.90;;;;;;;;;;4128903;28;20086;-53
2022/02/15 11:13:55;;;;;;;1.13;0.70;;;;;;;;;;4119681;28;20065;-56
2022/02/15 11:15:56;;;;;;;0.77;0.60;;;;;;;;;;4102232;28;20061;-55
2022/02/15 11:18:02;;;;;;;2.85;0.95;;;;;;;;;;4117106;28;20097;-55
2022/02/15 11:20:07;;;;;;;0.95;0.80;;;;;;;;;;4119322;28;20065;-55
2022/02/15 11:22:20;;;;;;;0.63;0.52;;;;;;;;;;4124734;28;20073;-55
2022/02/15 11:24:21;;;;;;;1.50;0.70;;;;;;;;;;4117813;28;20063;-54
2022/02/15 11:26:31;;;;;;;0.63;0.63;;;;;;;;;;4106325;28;20098;-53
2022/02/15 11:28:32;;;;;;;1.30;0.85;;;;;;;;;;4122868;28;20049;-51
2022/02/15 11:30:44;;;;;;;1.92;0.80;;;;;;;;;;4105195;28;20069;-54
2022/02/15 11:32:47;;;;;;;1.60;0.60;;;;;;;;;;4125830;28;20066;-53
2022/02/15 11:34:48;;;;;;;2.35;0.70;;;;;;;;;;4129228;28;20062;-57
2022/02/15 11:36:51;;;;;;;0.75;0.60;;;;;;;;;;4127851;28;20517;-52
2022/02/15 11:38:59;;;;;;;0.73;0.47;;;;;;;;;;4126489;28;20055;-56
2022/02/15 11:41:07;;;;;;;1.05;0.70;;;;;;;;;;4123183;28;20062;-52
2022/02/15 11:43:15;;;;;;;1.13;0.70;;;;;;;;;;4126604;28;20110;-51
2022/02/15 11:45:23;;;;;;;1.40;1.00;;;;;;;;;;4129692;28;20061;-49
2022/02/15 11:47:27;;;;;;;1.02;0.70;;;;;;;;;;4124918;28;20522;-50
2022/02/15 11:49:28;;;;;;;1.15;0.70;;;;;;;;;;4128642;28;20421;-53
2022/02/15 11:51:29;;;;;;;1.05;0.80;;;;;;;;;;4103817;28;20094;-52
2022/02/15 11:53:31;;;;;;;1.25;0.70;;;;;;;;;;4116451;28;20148;-51
2022/02/15 11:55:34;;;;;;;2.85;0.85;;;;;;;;;;4117664;28;20478;-50
2022/02/15 11:57:35;;;;;;;0.93;0.80;;;;;;;;;;4118550;28;20134;-53
2022/02/15 11:59:36;;;;;;;0.85;0.50;;;;;;;;;;4109001;28;20822;-52
2022/02/15 12:01:37;;;;;;;1.42;0.80;;;;;;;;;;4118033;28;20102;-53
2022/02/15 12:03:44;;;;;;;0.65;0.52;;;;;;;;;;4114385;28;20510;-52
2022/02/15 12:05:47;;;;;;;1.40;0.60;;;;;;;;;;4119924;28;20502;-51
2022/02/15 12:07:48;;;;;;;1.83;0.73;;;;;;;;;;4128957;28;20058;-53
2022/02/15 12:09:52;;;;;;;1.52;0.70;;;;;;;;;;4118575;28;20141;-52
2022/02/15 12:11:54;;;;;;;1.10;0.50;;;;;;;;;;4122977;28;20126;-53
2022/02/15 12:13:55;;;;;;;1.10;0.65;;;;;;;;;;4122584;28;20179;-53
2022/02/15 12:15:56;;;;;;;1.42;0.50;;;;;;;;;;4090269;28;20129;-53
2022/02/15 12:17:57;;;;;;;2.42;0.70;;;;;;;;;;4116393;28;20051;-51
2022/02/15 12:19:59;;;;;;;1.48;0.60;;;;;;;;;;4120725;28;20739;-51
2022/02/15 12:22:03;;;;;;;1.45;0.82;;;;;;;;;;4118418;28;20541;-50
2022/02/15 12:24:05;;;;;;;1.05;0.70;;;;;;;;;;4119516;28;21769;-54
2022/02/15 12:26:22;;;;;;;1.92;0.68;;;;;;;;;;4115996;28;20073;-54
2022/02/15 12:28:25;;;;;;;1.23;0.60;;;;;;;;;;4125501;28;20062;-53